Time;durP1;ratioP1;P1;durP2;ratioP2;P2;SDS_P1;SDS_P2;PMS_P1;PMS_P2;Temp;Humidity;BMP_temperature;BMP_pressure;BME280_temperature;BME280_humidity;BME280_pressure;Samples;Min_cycle;Max_cycle;Signal;HPM_P1;HPM_P2
2021/07/18 00:01:33;;;;;;;14.93;11.98;;;;;;;20.58;75.42;98594.00;4990429;28;20129;-69
2021/07/18 00:03:58;;;;;;;17.85;12.60;;;;;;;20.61;75.82;98600.66;4992112;28;20136;-70
2021/07/18 00:06:24;;;;;;;15.65;12.00;;;;;;;20.55;76.05;98601.94;4990410;28;20049;-70
2021/07/18 00:08:50;;;;;;;16.95;11.85;;;;;;;20.52;76.07;98600.69;4990540;28;20563;-70
2021/07/18 00:11:16;;;;;;;14.65;12.20;;;;;;;20.47;76.37;98592.78;4958044;28;20452;-69
2021/07/18 00:13:41;;;;;;;16.95;12.60;;;;;;;20.53;75.99;98601.47;4990451;28;20077;-70
2021/07/18 00:16:07;;;;;;;17.92;12.15;;;;;;;20.48;76.05;98590.88;4990671;28;20061;-68
2021/07/18 00:18:33;;;;;;;19.08;11.65;;;;;;;20.46;76.03;98585.00;4990012;28;20069;-69
2021/07/18 00:20:59;;;;;;;15.43;10.32;;;;;;;20.47;74.62;98584.69;4990690;28;20050;-70
2021/07/18 00:23:25;;;;;;;15.52;12.18;;;;;;;20.47;75.89;98582.00;4990385;28;20045;-69
2021/07/18 00:25:50;;;;;;;16.70;12.00;;;;;;;20.45;75.83;98581.53;4991478;28;20101;-70
2021/07/18 00:28:16;;;;;;;17.35;12.23;;;;;;;20.46;76.09;98583.09;4990401;28;20150;-70
2021/07/18 00:30:42;;;;;;;16.48;12.13;;;;;;;20.43;76.27;98584.53;4991457;28;20046;-69
2021/07/18 00:33:08;;;;;;;30.55;23.60;;;;;;;20.45;75.70;98578.06;4991664;28;20519;-70
2021/07/18 00:35:34;;;;;;;16.10;12.82;;;;;;;20.46;75.58;98579.63;4991421;28;20073;-69
2021/07/18 00:38:02;;;;;;;18.13;11.77;;;;;;;20.47;74.47;98575.81;4990043;28;20038;-69
2021/07/18 00:40:28;;;;;;;15.07;10.75;;;;;;;20.43;74.27;98576.44;4990036;28;20113;-69
2021/07/18 00:43:04;;;;;;;16.77;11.98;;;;;;;20.39;75.73;98578.22;4975820;28;20069;-69
2021/07/18 00:45:30;;;;;;;14.80;11.30;;;;;;;20.40;75.17;98579.00;4994760;28;20046;-69
2021/07/18 00:47:56;;;;;;;15.82;12.10;;;;;;;20.40;75.19;98587.88;4977364;28;20053;-68
2021/07/18 00:50:22;;;;;;;17.10;13.02;;;;;;;20.38;75.53;98587.41;4977098;28;20074;-70
2021/07/18 00:52:48;;;;;;;20.40;12.93;;;;;;;20.37;75.77;98582.34;4993350;28;20074;-69
2021/07/18 00:55:14;;;;;;;14.68;10.73;;;;;;;20.38;75.01;98590.09;4977164;28;20049;-69
2021/07/18 00:57:44;;;;;;;16.25;12.77;;;;;;;20.37;75.96;98587.72;4993178;28;20057;-70
2021/07/18 01:00:11;;;;;;;17.50;11.25;;;;;;;20.37;74.55;98585.81;5009613;28;20046;-69
2021/07/18 01:02:37;;;;;;;18.00;12.88;;;;;;;20.38;76.47;98592.78;4993492;28;20420;-69
2021/07/18 01:05:07;;;;;;;18.60;12.30;;;;;;;20.36;75.17;98581.56;4993186;28;20097;-69
2021/07/18 01:07:33;;;;;;;15.60;12.05;;;;;;;20.35;74.81;98579.97;4994415;28;20487;-70
2021/07/18 01:10:00;;;;;;;16.95;11.93;;;;;;;20.34;75.57;98575.69;4976940;28;20504;-70
2021/07/18 01:12:26;;;;;;;23.35;11.95;;;;;;;20.35;75.33;98585.38;4994294;28;20116;-69
2021/07/18 01:14:52;;;;;;;18.55;12.23;;;;;;;20.36;75.48;98580.78;4977011;28;20042;-69
2021/07/18 01:17:18;;;;;;;16.58;11.48;;;;;;;20.38;75.25;98581.22;4992949;28;20124;-69
2021/07/18 01:19:44;;;;;;;21.92;13.02;;;;;;;20.46;75.23;98585.78;5009294;28;20059;-69
2021/07/18 01:22:10;;;;;;;15.98;11.52;;;;;;;20.56;74.15;98585.47;4976683;28;20044;-69
2021/07/18 01:24:36;;;;;;;20.10;11.32;;;;;;;20.58;73.58;98572.47;4994066;28;20102;-69
2021/07/18 01:27:04;;;;;;;21.05;13.50;;;;;;;20.75;73.79;98576.22;4994214;28;20038;-69
2021/07/18 01:29:30;;;;;;;21.02;12.02;;;;;;;20.86;72.98;98583.59;4976531;28;20105;-69
2021/07/18 01:31:57;;;;;;;30.25;22.80;;;;;;;20.94;73.23;98581.16;4992626;28;20050;-68
2021/07/18 01:34:23;;;;;;;25.13;17.33;;;;;;;21.03;72.57;98574.63;4992846;28;20043;-70
2021/07/18 01:36:49;;;;;;;25.92;18.30;;;;;;;21.16;72.74;98588.97;4992665;28;20137;-71
2021/07/18 01:39:15;;;;;;;43.75;29.08;;;;;;;21.25;71.70;98583.53;4992309;28;20100;-70
2021/07/18 01:41:41;;;;;;;35.08;24.05;;;;;;;21.36;71.79;98573.97;4993761;28;20049;-70
2021/07/18 01:44:07;;;;;;;106.40;65.50;;;;;;;21.46;72.28;98583.56;4992623;28;20447;-69
2021/07/18 01:46:35;;;;;;;253.45;146.57;;;;;;;21.56;71.70;98583.19;4960007;28;20081;-69
2021/07/18 01:49:04;;;;;;;54.38;32.85;;;;;;;21.67;71.12;98587.03;4960220;28;20038;-69
2021/07/18 01:51:30;;;;;;;96.43;60.85;;;;;;;21.79;70.55;98580.91;4993454;28;20054;-70
2021/07/18 01:53:57;;;;;;;36.75;23.45;;;;;;;21.94;69.46;98582.19;5008345;28;20043;-69
2021/07/18 01:56:25;;;;;;;18.60;13.80;;;;;;;22.12;68.46;98586.34;4992207;28;20058;-70
2021/07/18 01:58:52;;;;;;;21.65;13.13;;;;;;;22.29;67.37;98590.75;5008357;28;20046;-69
2021/07/18 02:01:19;;;;;;;16.35;11.68;;;;;;;22.52;66.63;98591.16;4992122;28;20054;-69
2021/07/18 02:03:46;;;;;;;16.38;11.95;;;;;;;22.71;65.82;98584.41;4976134;28;20443;-70
2021/07/18 02:06:13;;;;;;;16.63;10.75;;;;;;;22.89;64.77;98589.25;4991983;28;20042;-70
2021/07/18 02:08:39;;;;;;;14.27;10.63;;;;;;;22.98;64.56;98583.00;4992065;28;20044;-70
2021/07/18 02:11:05;;;;;;;13.38;10.38;;;;;;;22.90;64.63;98595.44;4993281;28;20415;-69
2021/07/18 02:13:32;;;;;;;13.30;9.82;;;;;;;22.81;64.62;98592.88;4993442;28;20048;-70
2021/07/18 02:15:59;;;;;;;12.95;10.70;;;;;;;23.01;64.21;98598.53;4991841;28;20053;-69
2021/07/18 02:18:25;;;;;;;21.25;14.52;;;;;;;23.13;63.45;98593.88;4991542;28;20061;-70
2021/07/18 02:20:53;;;;;;;44.60;39.78;;;;;;;23.08;64.35;98594.13;4993299;28;20038;-70
2021/07/18 02:23:21;;;;;;;43.55;36.75;;;;;;;22.92;65.35;98601.31;4991752;28;20073;-70
2021/07/18 02:25:47;;;;;;;43.42;34.20;;;;;;;22.76;66.09;98600.41;5007942;28;20042;-70
2021/07/18 02:28:13;;;;;;;41.65;33.70;;;;;;;22.59;66.38;98591.41;4959414;28;20065;-71
2021/07/18 02:30:39;;;;;;;45.97;38.70;;;;;;;22.47;65.74;98594.06;4991823;28;20050;-69
2021/07/18 02:33:05;;;;;;;40.28;28.58;;;;;;;22.49;66.15;98591.03;4991645;28;20141;-70
2021/07/18 02:35:31;;;;;;;33.13;25.65;;;;;;;22.95;64.38;98589.84;4991478;28;20094;-70
2021/07/18 02:37:57;;;;;;;44.38;34.95;;;;;;;23.48;63.68;98589.91;4991283;28;20550;-71
2021/07/18 02:40:23;;;;;;;21.27;16.00;;;;;;;23.95;60.35;98598.22;4975178;28;20153;-70
2021/07/18 02:42:51;;;;;;;25.10;20.08;;;;;;;24.43;59.09;98606.44;4992646;28;20507;-69
2021/07/18 02:45:19;;;;;;;41.53;30.35;;;;;;;24.91;58.04;98607.22;4991488;28;20484;-70
2021/07/18 02:47:45;;;;;;;39.22;31.92;;;;;;;25.18;57.12;98605.56;4992847;28;20053;-70
2021/07/18 02:50:13;;;;;;;29.70;22.52;;;;;;;25.44;56.07;98607.66;4991282;28;20042;-70
2021/07/18 02:52:40;;;;;;;19.65;13.10;;;;;;;25.55;55.06;98611.38;4991188;28;20046;-70
2021/07/18 02:55:07;;;;;;;19.95;14.48;;;;;;;25.81;54.71;98610.75;4975521;28;20398;-70
2021/07/18 02:57:34;;;;;;;14.40;10.95;;;;;;;26.13;53.33;98609.84;4991019;28;20053;-69
2021/07/18 03:00:00;;;;;;;14.02;11.30;;;;;;;26.40;52.71;98610.72;4991255;28;20275;-70
2021/07/18 03:02:26;;;;;;;16.17;10.18;;;;;;;26.41;52.45;98614.97;4990895;28;20128;-71
2021/07/18 03:04:52;;;;;;;13.55;9.70;;;;;;;26.09;52.38;98614.41;4992556;28;20081;-69
2021/07/18 03:07:18;;;;;;;12.70;10.43;;;;;;;25.89;53.40;98617.16;4974262;28;20070;-70
2021/07/18 03:09:43;;;;;;;12.77;9.25;;;;;;;25.55;53.05;98616.81;4990786;28;20142;-70
2021/07/18 03:12:09;;;;;;;16.80;10.13;;;;;;;25.38;53.58;98622.63;4992160;28;20144;-70
2021/07/18 03:14:35;;;;;;;13.63;9.20;;;;;;;25.07;54.07;98612.63;4990856;28;20038;-70
2021/07/18 03:17:01;;;;;;;12.55;9.30;;;;;;;24.89;54.27;98610.28;4990887;28;20064;-69
2021/07/18 03:19:27;;;;;;;11.52;9.63;;;;;;;24.56;55.06;98613.38;4990667;28;20070;-71
2021/07/18 03:21:52;;;;;;;12.77;9.52;;;;;;;24.33;55.69;98612.34;4974948;28;20037;-69
2021/07/18 03:24:18;;;;;;;13.00;9.75;;;;;;;24.75;55.50;98607.22;4974663;28;20074;-70
2021/07/18 03:26:44;;;;;;;11.65;9.23;;;;;;;25.06;53.54;98609.13;4990807;28;20121;-70
2021/07/18 03:29:10;;;;;;;12.68;9.45;;;;;;;25.41;53.76;98621.94;4991811;28;20042;-70
2021/07/18 03:31:36;;;;;;;11.98;9.38;;;;;;;25.58;51.93;98609.88;4992019;28;20082;-70
2021/07/18 03:34:01;;;;;;;11.88;9.55;;;;;;;25.79;52.13;98609.53;4992349;28;20515;-70
2021/07/18 03:36:27;;;;;;;12.90;8.70;;;;;;;26.01;50.26;98613.50;4991927;28;20504;-70
2021/07/18 03:38:53;;;;;;;14.23;9.55;;;;;;;26.29;51.28;98615.94;4990689;28;20140;-70
2021/07/18 03:41:20;;;;;;;14.65;9.60;;;;;;;26.22;52.12;98615.81;4974541;28;20092;-69
2021/07/18 03:43:47;;;;;;;11.57;9.55;;;;;;;25.92;51.95;98608.28;4974569;28;20105;-69
2021/07/18 03:46:14;;;;;;;13.35;9.35;;;;;;;26.06;52.63;98615.94;4990644;28;20080;-70
2021/07/18 03:48:40;;;;;;;11.90;9.32;;;;;;;26.25;51.75;98615.88;4990706;28;20078;-70
2021/07/18 03:51:06;;;;;;;15.40;9.63;;;;;;;26.41;51.44;98613.06;5007037;28;20475;-70
2021/07/18 03:53:32;;;;;;;16.00;9.90;;;;;;;26.40;51.52;98608.00;4990421;28;20060;-69
2021/07/18 03:55:58;;;;;;;14.65;9.82;;;;;;;26.64;51.25;98615.03;5006765;28;20512;-69
2021/07/18 03:58:24;;;;;;;14.45;9.60;;;;;;;27.04;50.73;98605.56;4990352;28;20050;-70
2021/07/18 04:00:49;;;;;;;12.38;9.10;;;;;;;27.08;50.31;98609.09;4990531;28;20050;-71
2021/07/18 04:03:15;;;;;;;11.85;9.13;;;;;;;27.16;49.95;98608.88;4991579;28;20496;-70
2021/07/18 04:05:41;;;;;;;11.50;8.88;;;;;;;27.15;49.74;98603.81;4990390;28;20047;-70
2021/07/18 04:08:07;;;;;;;12.63;8.93;;;;;;;27.16;49.55;98603.44;4990424;28;20038;-70
2021/07/18 04:10:33;;;;;;;12.05;8.77;;;;;;;27.41;48.94;98605.69;4974295;28;20429;-69
2021/07/18 04:13:00;;;;;;;11.52;8.77;;;;;;;27.47;48.35;98603.44;4990323;28;20042;-71
2021/07/18 04:15:26;;;;;;;12.27;8.77;;;;;;;27.74;48.81;98599.53;4991790;28;20057;-70
2021/07/18 04:17:53;;;;;;;11.55;8.45;;;;;;;28.00;47.70;98600.59;4975712;28;20116;-70
2021/07/18 04:20:19;;;;;;;9.45;8.35;;;;;;;28.15;46.93;98605.06;4994152;28;20050;-70
2021/07/18 04:22:45;;;;;;;9.07;8.18;;;;;;;28.33;47.10;98604.47;4995367;28;20034;-70
2021/07/18 04:25:12;;;;;;;13.45;8.13;;;;;;;28.24;47.08;98605.53;4995410;28;20042;-70
2021/07/18 04:27:38;;;;;;;12.45;8.95;;;;;;;28.38;47.41;98593.97;4961789;28;20066;-70
2021/07/18 04:30:05;;;;;;;9.60;8.15;;;;;;;28.69;47.05;98600.13;4993768;28;20039;-71
2021/07/18 04:32:31;;;;;;;12.90;8.35;;;;;;;28.83;46.31;98596.72;4994882;28;20046;-71
2021/07/18 04:34:57;;;;;;;12.15;8.95;;;;;;;28.97;46.15;98591.34;4977630;28;20046;-71
2021/07/18 04:37:24;;;;;;;11.70;8.52;;;;;;;29.09;46.02;98585.63;4993662;28;20046;-70
2021/07/18 04:39:50;;;;;;;10.20;8.32;;;;;;;29.29;46.10;98599.00;4993682;28;20616;-71
2021/07/18 04:42:15;;;;;;;11.38;8.77;;;;;;;29.50;45.36;98598.31;4993611;28;20488;-70
2021/07/18 04:44:41;;;;;;;12.70;8.60;;;;;;;29.63;45.49;98602.31;4995104;28;20057;-69
2021/07/18 04:47:07;;;;;;;10.65;7.70;;;;;;;29.76;43.19;98594.53;4993598;28;20050;-70
2021/07/18 04:49:33;;;;;;;9.13;7.90;;;;;;;29.85;43.61;98589.50;4994725;28;20050;-70
2021/07/18 04:51:59;;;;;;;12.60;8.45;;;;;;;29.91;43.62;98589.91;4993606;28;20049;-71
2021/07/18 04:54:25;;;;;;;10.27;8.48;;;;;;;29.99;43.51;98584.06;4994632;28;20424;-70
2021/07/18 04:56:51;;;;;;;9.55;8.40;;;;;;;30.05;43.96;98585.25;4994837;28;20053;-70
2021/07/18 04:59:19;;;;;;;11.10;7.72;;;;;;;29.85;42.07;98589.50;4993235;28;20054;-70
2021/07/18 05:01:45;;;;;;;8.52;7.65;;;;;;;29.75;41.20;98593.00;4993322;28;20089;-70
2021/07/18 05:04:11;;;;;;;9.63;6.68;;;;;;;29.77;41.20;98598.84;4993431;28;20042;-70
2021/07/18 05:06:37;;;;;;;10.43;6.47;;;;;;;29.93;39.96;98593.81;4977041;28;20069;-72
2021/07/18 05:09:03;;;;;;;9.27;6.55;;;;;;;29.95;40.84;98594.22;4994848;28;20173;-72
2021/07/18 05:11:29;;;;;;;6.53;5.93;;;;;;;29.93;41.07;98598.50;4994355;28;20050;-70
2021/07/18 05:13:55;;;;;;;7.47;6.65;;;;;;;29.70;40.84;98604.28;4994679;28;20053;-70
2021/07/18 05:16:21;;;;;;;9.05;6.55;;;;;;;29.47;41.89;98599.84;4994299;28;20038;-70
2021/07/18 05:18:47;;;;;;;9.38;6.95;;;;;;;29.42;41.87;98601.00;4994086;28;20543;-71
2021/07/18 05:21:13;;;;;;;8.48;6.82;;;;;;;29.36;41.84;98602.53;4992933;28;20096;-69
2021/07/18 05:23:39;;;;;;;10.65;7.57;;;;;;;29.18;42.89;98601.66;4976598;28;20046;-70
2021/07/18 05:26:05;;;;;;;7.55;6.85;;;;;;;29.18;43.08;98615.31;4992821;28;20054;-70
2021/07/18 05:28:31;;;;;;;9.82;7.32;;;;;;;29.20;42.78;98605.56;4960252;28;20133;-71
2021/07/18 05:30:57;;;;;;;7.65;6.85;;;;;;;29.21;42.41;98606.38;4992469;28;20050;-70
2021/07/18 05:33:23;;;;;;;7.20;6.28;;;;;;;29.21;41.53;98598.19;5009050;28;20042;-69
2021/07/18 05:35:49;;;;;;;6.78;6.07;;;;;;;29.15;41.47;98592.28;4993059;28;20048;-70
2021/07/18 05:38:14;;;;;;;7.03;6.32;;;;;;;28.96;41.67;98592.53;4993960;28;20085;-71
2021/07/18 05:40:40;;;;;;;9.32;6.57;;;;;;;28.76;42.92;98594.72;4992647;28;20093;-71
2021/07/18 05:43:06;;;;;;;7.43;6.72;;;;;;;28.59;42.40;98579.00;4976491;28;20039;-70
2021/07/18 05:45:32;;;;;;;8.85;6.40;;;;;;;28.49;43.84;98589.44;4993675;28;20042;-70
2021/07/18 05:47:58;;;;;;;9.20;6.88;;;;;;;28.50;43.48;98593.75;4992474;28;20046;-71
2021/07/18 05:50:24;;;;;;;7.95;6.35;;;;;;;28.42;41.25;98597.56;4992426;28;20100;-70
2021/07/18 05:52:50;;;;;;;11.10;6.80;;;;;;;28.28;43.32;98597.41;5008542;28;20045;-71
2021/07/18 05:55:16;;;;;;;7.40;6.25;;;;;;;28.28;43.85;98587.28;4976006;28;20049;-70
2021/07/18 05:57:42;;;;;;;7.65;6.88;;;;;;;28.25;43.73;98595.41;4976199;28;20046;-71
2021/07/18 06:00:11;;;;;;;8.30;6.95;;;;;;;28.30;43.34;98593.16;4992438;28;20507;-69
2021/07/18 06:02:38;;;;;;;8.13;6.90;;;;;;;28.27;42.90;98596.63;4993488;28;20042;-70
2021/07/18 06:05:05;;;;;;;9.95;7.00;;;;;;;28.29;42.73;98588.84;4992348;28;20050;-71
2021/07/18 06:07:31;;;;;;;7.75;6.18;;;;;;;28.26;43.06;98581.41;4991903;28;20038;-70
2021/07/18 06:09:57;;;;;;;6.25;5.65;;;;;;;28.30;41.90;98587.69;4992074;28;20066;-70
2021/07/18 06:12:23;;;;;;;9.85;6.35;;;;;;;28.17;42.15;98583.66;4991856;28;20050;-70
2021/07/18 06:14:49;;;;;;;7.80;6.32;;;;;;;28.20;43.58;98585.63;4991839;28;20150;-70
2021/07/18 06:17:14;;;;;;;8.02;5.65;;;;;;;28.21;41.63;98573.59;4993128;28;20039;-70
2021/07/18 06:19:41;;;;;;;7.35;5.32;;;;;;;28.26;40.21;98570.50;4992796;28;20070;-70
2021/07/18 06:22:07;;;;;;;6.50;5.82;;;;;;;28.24;39.99;98569.34;4991714;28;20053;-69
2021/07/18 06:24:34;;;;;;;6.47;5.03;;;;;;;28.28;38.38;98578.31;4991622;28;20054;-70
2021/07/18 06:27:01;;;;;;;6.00;4.97;;;;;;;28.33;39.37;98569.81;4975454;28;20128;-70
2021/07/18 06:29:27;;;;;;;6.80;5.95;;;;;;;28.33;39.78;98572.53;4991458;28;20053;-70
2021/07/18 06:31:53;;;;;;;6.20;5.45;;;;;;;28.32;40.52;98573.69;4991420;28;20042;-70
2021/07/18 06:34:19;;;;;;;7.32;6.10;;;;;;;28.28;40.47;98575.59;4975140;28;20430;-70
2021/07/18 06:36:48;;;;;;;6.38;5.65;;;;;;;28.22;38.95;98568.94;4991597;28;20537;-70
2021/07/18 06:39:15;;;;;;;6.03;5.25;;;;;;;28.22;39.84;98564.25;4991480;28;20059;-70
2021/07/18 06:41:42;;;;;;;6.40;5.43;;;;;;;28.19;40.27;98570.47;5006628;28;20557;-69
2021/07/18 06:44:08;;;;;;;6.00;5.40;;;;;;;28.21;40.70;98564.66;4992954;28;20077;-71
2021/07/18 06:46:34;;;;;;;6.28;5.38;;;;;;;28.20;39.39;98563.06;4992748;28;20077;-70
2021/07/18 06:49:00;;;;;;;10.25;5.53;;;;;;;28.28;39.24;98568.19;4991471;28;20541;-70
2021/07/18 06:51:26;;;;;;;6.03;5.03;;;;;;;28.29;39.26;98572.47;5007662;28;20062;-70
2021/07/18 06:53:52;;;;;;;5.97;5.38;;;;;;;28.18;39.35;98568.09;4991430;28;20084;-70
2021/07/18 06:56:18;;;;;;;7.88;6.00;;;;;;;28.06;39.59;98564.50;4991036;28;20050;-68
2021/07/18 06:58:44;;;;;;;6.53;5.90;;;;;;;27.99;40.16;98578.03;4990822;28;20080;-69
2021/07/18 07:01:10;;;;;;;7.97;5.53;;;;;;;28.01;40.47;98577.69;4991083;28;20054;-71
2021/07/18 07:03:35;;;;;;;8.52;6.43;;;;;;;28.13;40.40;98579.34;4975077;28;20038;-70
2021/07/18 07:06:02;;;;;;;6.57;5.85;;;;;;;28.14;39.93;98578.97;4992624;28;20074;-70
2021/07/18 07:08:30;;;;;;;6.43;5.80;;;;;;;28.24;39.85;98583.75;4991087;28;20105;-70
2021/07/18 07:10:56;;;;;;;9.23;5.80;;;;;;;28.31;40.45;98585.75;4992232;28;20472;-71
2021/07/18 07:13:22;;;;;;;8.15;6.10;;;;;;;28.36;40.28;98576.47;4990776;28;20047;-71
2021/07/18 07:15:47;;;;;;;6.55;5.95;;;;;;;28.43;41.31;98571.88;4991021;28;20133;-70
2021/07/18 07:18:13;;;;;;;7.30;5.90;;;;;;;28.43;41.58;98574.59;4991943;28;20431;-70
2021/07/18 07:20:39;;;;;;;7.95;5.55;;;;;;;28.48;41.43;98568.03;4992158;28;20074;-70
2021/07/18 07:23:05;;;;;;;6.88;6.15;;;;;;;28.55;41.02;98568.06;4992266;28;20038;-70
2021/07/18 07:25:31;;;;;;;6.85;6.15;;;;;;;28.50;40.94;98565.69;4992057;28;20050;-69
2021/07/18 07:27:57;;;;;;;7.57;6.78;;;;;;;28.34;41.66;98567.88;4991040;28;20042;-70
2021/07/18 07:30:23;;;;;;;6.65;5.97;;;;;;;28.15;42.44;98561.47;4991953;28;20092;-70
2021/07/18 07:32:49;;;;;;;9.80;6.22;;;;;;;28.05;42.25;98567.59;4991942;28;20042;-70
2021/07/18 07:35:16;;;;;;;7.78;6.70;;;;;;;28.20;41.63;98563.84;4974914;28;20105;-69
2021/07/18 07:37:43;;;;;;;7.20;6.50;;;;;;;28.36;41.63;98571.78;4990795;28;20049;-70
2021/07/18 07:40:11;;;;;;;6.82;6.20;;;;;;;28.49;41.91;98564.91;4990866;28;20046;-69
2021/07/18 07:42:37;;;;;;;10.07;6.82;;;;;;;28.53;43.16;98564.94;4958429;28;20179;-70
2021/07/18 07:45:03;;;;;;;7.68;6.88;;;;;;;28.59;41.99;98566.16;4990447;28;20166;-70
2021/07/18 07:47:29;;;;;;;9.02;7.50;;;;;;;28.64;41.12;98559.56;4974370;28;20042;-70
2021/07/18 07:49:56;;;;;;;8.07;7.22;;;;;;;28.69;42.07;98573.63;4974580;28;20047;-71
2021/07/18 07:52:22;;;;;;;8.45;6.65;;;;;;;28.71;41.32;98565.88;4992644;28;20089;-70
2021/07/18 07:54:48;;;;;;;8.80;6.85;;;;;;;28.62;41.97;98559.97;4994485;28;20046;-70
2021/07/18 07:57:14;;;;;;;7.88;7.13;;;;;;;28.69;41.60;98568.19;4994549;28;20083;-69
2021/07/18 07:59:40;;;;;;;8.30;7.10;;;;;;;28.76;40.91;98565.50;4994230;28;20149;-70
2021/07/18 08:02:05;;;;;;;8.05;6.70;;;;;;;28.76;39.99;98557.31;4994173;28;20048;-69
2021/07/18 08:04:31;;;;;;;8.80;7.20;;;;;;;28.67;41.31;98550.63;4994461;28;20688;-70
2021/07/18 08:06:57;;;;;;;7.97;6.38;;;;;;;28.68;40.72;98563.13;4994449;28;20050;-70
2021/07/18 08:09:23;;;;;;;10.15;6.80;;;;;;;28.51;42.08;98568.03;4995725;28;20050;-70
2021/07/18 08:11:49;;;;;;;7.65;6.93;;;;;;;28.55;40.55;98559.88;4995725;28;20041;-70
2021/07/18 08:14:16;;;;;;;7.47;6.78;;;;;;;28.70;40.49;98558.06;5010587;28;20085;-70
2021/07/18 08:16:42;;;;;;;8.82;6.95;;;;;;;28.74;40.52;98553.41;4994091;28;20042;-70
2021/07/18 08:19:08;;;;;;;8.13;7.05;;;;;;;28.90;40.41;98562.09;4945695;28;20085;-70
2021/07/18 08:21:34;;;;;;;9.55;7.15;;;;;;;28.96;41.03;98552.38;4995276;28;20504;-69
2021/07/18 08:24:01;;;;;;;8.75;6.95;;;;;;;29.07;40.60;98565.34;4994161;28;20046;-69
2021/07/18 08:26:28;;;;;;;8.95;6.90;;;;;;;29.14;40.22;98555.25;4977895;28;20134;-70
2021/07/18 08:28:53;;;;;;;10.15;6.95;;;;;;;29.26;40.29;98550.63;4995029;28;20125;-70
2021/07/18 08:31:19;;;;;;;7.55;6.70;;;;;;;29.31;39.75;98553.78;4993706;28;20046;-69
2021/07/18 08:33:45;;;;;;;9.32;6.68;;;;;;;29.33;39.23;98550.69;4995305;28;20137;-70
2021/07/18 08:36:12;;;;;;;8.15;7.35;;;;;;;29.19;40.30;98559.56;4994911;28;20050;-69
2021/07/18 08:38:38;;;;;;;9.50;7.47;;;;;;;29.20;40.16;98552.94;4993415;28;20042;-68
2021/07/18 08:41:05;;;;;;;9.07;7.40;;;;;;;29.06;40.90;98552.84;4994923;28;20523;-69
2021/07/18 08:43:32;;;;;;;8.23;7.40;;;;;;;28.88;40.40;98552.72;4993080;28;20500;-69
2021/07/18 08:45:58;;;;;;;8.35;7.10;;;;;;;28.68;40.77;98557.66;4993576;28;20050;-70
2021/07/18 08:48:24;;;;;;;10.20;7.53;;;;;;;28.63;41.08;98550.59;4993228;28;20440;-70
2021/07/18 08:50:50;;;;;;;8.68;7.13;;;;;;;28.87;40.30;98540.25;4977548;28;20053;-69
2021/07/18 08:53:17;;;;;;;8.52;7.43;;;;;;;29.02;40.42;98541.13;4976968;28;20039;-68
2021/07/18 08:55:43;;;;;;;10.20;8.05;;;;;;;29.08;41.28;98548.59;4994587;28;20480;-69
2021/07/18 08:58:10;;;;;;;9.95;7.30;;;;;;;29.18;40.13;98547.09;4993398;28;20050;-70
2021/07/18 09:00:37;;;;;;;8.10;7.30;;;;;;;29.07;40.66;98519.75;4994468;28;20042;-68
2021/07/18 09:03:04;;;;;;;8.15;7.20;;;;;;;29.27;40.38;98544.78;4977041;28;20077;-69
2021/07/18 09:05:29;;;;;;;12.48;7.97;;;;;;;29.33;40.89;98543.25;4993660;28;20042;-69
2021/07/18 09:07:56;;;;;;;9.82;7.63;;;;;;;29.43;40.09;98530.81;4977090;28;20034;-69
2021/07/18 09:10:29;;;;;;;8.45;7.57;;;;;;;29.48;39.78;98535.13;5009426;28;20088;-70
2021/07/18 09:13:09;;;;;;;8.30;7.40;;;;;;;29.54;39.45;98528.91;4994554;28;20188;-68
2021/07/18 09:15:48;;;;;;;9.48;7.63;;;;;;;29.60;38.94;98532.81;4977101;28;20145;-69
2021/07/18 09:18:16;;;;;;;9.23;7.00;;;;;;;29.59;39.57;98528.53;4993871;28;20062;-69
2021/07/18 09:20:49;;;;;;;8.80;7.28;;;;;;;29.36;40.35;98523.38;4994385;28;20053;-70
2021/07/18 09:23:17;;;;;;;7.78;6.97;;;;;;;29.30;40.85;98530.38;4992877;28;20043;-69
2021/07/18 09:25:44;;;;;;;10.15;8.00;;;;;;;29.32;39.87;98511.66;4993868;28;20038;-70
2021/07/18 09:28:20;;;;;;;8.73;7.93;;;;;;;29.44;39.88;98521.44;4960361;28;20042;-70
2021/07/18 09:30:47;;;;;;;8.77;7.78;;;;;;;29.49;39.80;98521.09;4976572;28;20420;-69
2021/07/18 09:33:27;;;;;;;9.15;7.40;;;;;;;29.47;40.26;98523.41;4993900;28;20042;-68
2021/07/18 09:36:11;;;;;;;8.25;7.35;;;;;;;29.42;40.28;98510.94;4994208;28;20052;-69
2021/07/18 09:38:37;;;;;;;11.75;8.10;;;;;;;29.41;40.21;98514.03;4994073;28;20053;-68
2021/07/18 09:41:03;;;;;;;11.90;8.48;;;;;;;29.56;39.95;98510.19;4960560;28;20447;-69
2021/07/18 09:43:30;;;;;;;9.38;7.60;;;;;;;29.76;39.30;98507.16;4993806;28;20126;-69
2021/07/18 09:46:01;;;;;;;10.63;7.47;;;;;;;29.86;38.57;98500.94;4992406;28;20532;-69
2021/07/18 09:48:44;;;;;;;8.85;7.00;;;;;;;29.98;38.12;98500.56;4976238;28;20048;-69
2021/07/18 09:51:15;;;;;;;9.55;7.15;;;;;;;30.01;37.76;98501.72;4992391;28;20130;-70
2021/07/18 09:53:42;;;;;;;8.77;7.15;;;;;;;30.17;38.11;98504.06;4992224;28;20042;-70
2021/07/18 09:56:10;;;;;;;11.55;7.60;;;;;;;30.27;37.75;98503.34;4993730;28;20046;-69
2021/07/18 09:58:50;;;;;;;10.63;7.15;;;;;;;30.34;38.36;98495.13;4975939;28;20491;-70
2021/07/18 10:01:17;;;;;;;10.43;7.53;;;;;;;30.35;38.58;98490.44;5008538;28;20050;-69
2021/07/18 10:03:51;;;;;;;8.85;7.35;;;;;;;30.38;39.05;98490.41;4993717;28;20046;-69
2021/07/18 10:06:19;;;;;;;8.50;6.82;;;;;;;30.49;38.91;98483.00;4976188;28;20086;-70
2021/07/18 10:08:50;;;;;;;8.70;7.18;;;;;;;30.66;38.22;98480.63;4975978;28;20042;-70
2021/07/18 10:11:19;;;;;;;10.15;7.55;;;;;;;30.66;37.92;98475.94;4993136;28;20046;-70
2021/07/18 10:13:47;;;;;;;11.23;8.07;;;;;;;30.57;38.25;98461.91;4992011;28;20496;-70
2021/07/18 10:16:14;;;;;;;10.40;7.75;;;;;;;30.60;37.70;98461.09;4992915;28;20471;-68
2021/07/18 10:18:45;;;;;;;8.52;7.63;;;;;;;30.51;38.46;98466.22;5007920;28;20056;-69
2021/07/18 10:21:18;;;;;;;12.52;8.27;;;;;;;30.40;38.34;98457.22;4993366;28;20629;-68
2021/07/18 10:23:46;;;;;;;8.57;7.25;;;;;;;30.51;38.34;98458.78;4992061;28;20494;-69
2021/07/18 10:26:16;;;;;;;8.27;7.40;;;;;;;30.59;37.69;98456.03;4991620;28;20054;-69
2021/07/18 10:28:43;;;;;;;9.63;7.53;;;;;;;30.63;38.02;98452.13;4993020;28;20100;-69
2021/07/18 10:31:19;;;;;;;8.75;7.25;;;;;;;30.73;38.32;98445.03;4975264;28;20054;-69
2021/07/18 10:33:47;;;;;;;11.98;7.20;;;;;;;30.74;37.52;98438.41;4991458;28;20081;-70
2021/07/18 10:36:14;;;;;;;10.63;7.30;;;;;;;30.66;37.06;98443.13;4975341;28;20133;-70
2021/07/18 10:38:40;;;;;;;8.25;7.13;;;;;;;30.55;37.17;98440.41;4991302;28;20060;-70
2021/07/18 10:41:06;;;;;;;9.02;7.28;;;;;;;30.46;36.83;98433.78;4959199;28;20053;-70
2021/07/18 10:43:40;;;;;;;10.00;7.88;;;;;;;30.45;37.04;98427.53;4992848;28;20038;-69
2021/07/18 10:46:12;;;;;;;10.23;7.85;;;;;;;30.49;37.14;98433.00;4992864;28;20046;-69
2021/07/18 10:48:47;;;;;;;8.15;7.15;;;;;;;30.63;37.16;98421.25;4991622;28;20583;-69
2021/07/18 10:51:15;;;;;;;11.70;7.57;;;;;;;30.74;37.09;98422.00;4991302;28;20065;-69
2021/07/18 10:53:41;;;;;;;12.00;8.10;;;;;;;30.82;37.69;98418.09;5007753;28;20571;-67
2021/07/18 10:56:08;;;;;;;9.52;7.43;;;;;;;30.86;36.78;98416.13;4991140;28;20050;-69
2021/07/18 10:58:40;;;;;;;8.90;7.30;;;;;;;30.85;36.91;98413.78;4958719;28;20038;-68
2021/07/18 11:01:21;;;;;;;9.20;7.65;;;;;;;30.85;36.71;98411.81;4992729;28;20468;-69
2021/07/18 11:03:48;;;;;;;9.90;7.32;;;;;;;30.83;37.38;98411.44;5007579;28;20116;-68
2021/07/18 11:06:31;;;;;;;10.20;7.90;;;;;;;30.77;37.82;98415.75;4990925;28;20129;-69
2021/07/18 11:09:13;;;;;;;9.57;7.68;;;;;;;30.78;36.67;98411.81;4991218;28;20039;-68
2021/07/18 11:11:57;;;;;;;9.30;6.88;;;;;;;30.78;36.65;98401.69;4992208;28;20053;-70
2021/07/18 11:14:24;;;;;;;8.13;7.15;;;;;;;30.94;36.80;98406.72;4990863;28;20535;-70
2021/07/18 11:16:56;;;;;;;11.27;8.25;;;;;;;31.09;36.99;98407.44;4990667;28;20042;-70
2021/07/18 11:19:37;;;;;;;8.77;7.75;;;;;;;31.17;36.31;98406.19;4974413;28;20062;-70
2021/07/18 11:22:13;;;;;;;9.55;7.60;;;;;;;31.19;36.56;98405.81;4990701;28;20085;-70
2021/07/18 11:24:53;;;;;;;9.48;7.95;;;;;;;31.23;37.25;98398.34;4992114;28;20093;-70
2021/07/18 11:27:27;;;;;;;10.70;8.38;;;;;;;31.33;36.76;98396.75;4974194;28;20050;-70